sensor_id;sensor_type;location;lat;lon;timestamp;P1;durP1;ratioP1;P2;durP2;ratioP2
76995;SDS011;65929;49.062;10.338;2023-03-09T00:01:04;0.47;;;0.40;;
76995;SDS011;65929;49.062;10.338;2023-03-09T00:02:05;0.70;;;0.40;;
76995;SDS011;65929;49.062;10.338;2023-03-09T00:03:06;0.80;;;0.45;;
76995;SDS011;65929;49.062;10.338;2023-03-09T00:04:18;0.30;;;0.30;;
76995;SDS011;65929;49.062;10.338;2023-03-09T00:06:38;0.45;;;0.30;;
76995;SDS011;65929;49.062;10.338;2023-03-09T00:07:09;0.20;;;0.20;;
76995;SDS011;65929;49.062;10.338;2023-03-09T00:08:16;0.57;;;0.22;;
76995;SDS011;65929;49.062;10.338;2023-03-09T00:09:22;0.85;;;0.20;;
76995;SDS011;65929;49.062;10.338;2023-03-09T00:10:23;1.38;;;0.25;;
76995;SDS011;65929;49.062;10.338;2023-03-09T00:11:24;0.50;;;0.30;;
76995;SDS011;65929;49.062;10.338;2023-03-09T00:12:33;1.10;;;0.30;;
76995;SDS011;65929;49.062;10.338;2023-03-09T00:13:44;0.20;;;0.20;;
76995;SDS011;65929;49.062;10.338;2023-03-09T00:14:50;0.38;;;0.30;;
76995;SDS011;65929;49.062;10.338;2023-03-09T00:15:55;0.30;;;0.30;;
76995;SDS011;65929;49.062;10.338;2023-03-09T00:16:56;1.08;;;0.40;;
76995;SDS011;65929;49.062;10.338;2023-03-09T00:17:57;1.48;;;0.30;;
76995;SDS011;65929;49.062;10.338;2023-03-09T00:19:02;1.02;;;0.40;;
76995;SDS011;65929;49.062;10.338;2023-03-09T00:20:10;0.40;;;0.30;;
76995;SDS011;65929;49.062;10.338;2023-03-09T00:21:18;0.50;;;0.30;;
76995;SDS011;65929;49.062;10.338;2023-03-09T00:22:39;0.55;;;0.40;;
76995;SDS011;65929;49.062;10.338;2023-03-09T00:23:43;1.08;;;0.47;;
76995;SDS011;65929;49.062;10.338;2023-03-09T00:24:47;1.00;;;0.30;;
76995;SDS011;65929;49.062;10.338;2023-03-09T00:25:51;1.23;;;0.63;;
76995;SDS011;65929;49.062;10.338;2023-03-09T00:27:02;0.30;;;0.30;;
76995;SDS011;65929;49.062;10.338;2023-03-09T00:28:29;0.60;;;0.40;;
76995;SDS011;65929;49.062;10.338;2023-03-09T00:29:30;1.65;;;0.40;;
76995;SDS011;65929;49.062;10.338;2023-03-09T00:30:31;1.27;;;0.60;;
76995;SDS011;65929;49.062;10.338;2023-03-09T00:31:33;0.63;;;0.50;;
76995;SDS011;65929;49.062;10.338;2023-03-09T00:32:34;0.60;;;0.40;;
76995;SDS011;65929;49.062;10.338;2023-03-09T00:33:35;0.65;;;0.47;;
76995;SDS011;65929;49.062;10.338;2023-03-09T00:34:36;0.88;;;0.50;;
76995;SDS011;65929;49.062;10.338;2023-03-09T00:35:42;1.58;;;0.50;;
76995;SDS011;65929;49.062;10.338;2023-03-09T00:36:46;1.02;;;0.70;;
76995;SDS011;65929;49.062;10.338;2023-03-09T00:37:47;0.90;;;0.50;;
76995;SDS011;65929;49.062;10.338;2023-03-09T00:38:51;0.75;;;0.50;;
76995;SDS011;65929;49.062;10.338;2023-03-09T00:39:54;1.10;;;0.65;;
76995;SDS011;65929;49.062;10.338;2023-03-09T00:40:55;0.93;;;0.60;;
76995;SDS011;65929;49.062;10.338;2023-03-09T00:42:01;1.63;;;0.65;;
76995;SDS011;65929;49.062;10.338;2023-03-09T00:43:03;1.02;;;0.60;;
76995;SDS011;65929;49.062;10.338;2023-03-09T00:44:04;2.17;;;0.60;;
76995;SDS011;65929;49.062;10.338;2023-03-09T00:45:05;1.63;;;0.50;;
76995;SDS011;65929;49.062;10.338;2023-03-09T00:46:13;1.30;;;0.70;;
76995;SDS011;65929;49.062;10.338;2023-03-09T00:47:14;1.23;;;0.50;;
76995;SDS011;65929;49.062;10.338;2023-03-09T00:48:15;1.65;;;0.77;;
76995;SDS011;65929;49.062;10.338;2023-03-09T00:49:16;0.73;;;0.40;;
76995;SDS011;65929;49.062;10.338;2023-03-09T00:50:17;1.17;;;0.60;;
76995;SDS011;65929;49.062;10.338;2023-03-09T00:51:18;0.60;;;0.60;;
76995;SDS011;65929;49.062;10.338;2023-03-09T00:52:19;0.88;;;0.70;;
76995;SDS011;65929;49.062;10.338;2023-03-09T00:53:23;1.38;;;0.73;;
76995;SDS011;65929;49.062;10.338;2023-03-09T00:54:24;2.08;;;0.98;;
76995;SDS011;65929;49.062;10.338;2023-03-09T00:55:30;0.82;;;0.65;;
76995;SDS011;65929;49.062;10.338;2023-03-09T00:57:31;1.25;;;0.77;;
76995;SDS011;65929;49.062;10.338;2023-03-09T00:58:33;1.27;;;0.63;;
76995;SDS011;65929;49.062;10.338;2023-03-09T00:59:34;0.63;;;0.63;;
76995;SDS011;65929;49.062;10.338;2023-03-09T01:00:35;2.42;;;0.95;;
76995;SDS011;65929;49.062;10.338;2023-03-09T01:01:37;0.98;;;0.68;;
76995;SDS011;65929;49.062;10.338;2023-03-09T01:02:38;2.17;;;0.90;;
76995;SDS011;65929;49.062;10.338;2023-03-09T01:03:39;1.40;;;0.80;;
76995;SDS011;65929;49.062;10.338;2023-03-09T01:04:40;1.58;;;0.52;;
76995;SDS011;65929;49.062;10.338;2023-03-09T01:05:41;1.20;;;0.70;;
76995;SDS011;65929;49.062;10.338;2023-03-09T01:06:42;1.77;;;1.00;;
76995;SDS011;65929;49.062;10.338;2023-03-09T01:07:43;1.80;;;1.08;;
76995;SDS011;65929;49.062;10.338;2023-03-09T01:08:44;1.85;;;1.00;;
76995;SDS011;65929;49.062;10.338;2023-03-09T01:09:48;1.77;;;0.90;;
76995;SDS011;65929;49.062;10.338;2023-03-09T01:10:50;1.65;;;0.88;;
76995;SDS011;65929;49.062;10.338;2023-03-09T01:11:51;1.88;;;1.05;;
76995;SDS011;65929;49.062;10.338;2023-03-09T01:12:55;2.25;;;1.50;;
76995;SDS011;65929;49.062;10.338;2023-03-09T01:13:59;2.95;;;1.00;;
76995;SDS011;65929;49.062;10.338;2023-03-09T01:15:00;0.63;;;0.30;;
76995;SDS011;65929;49.062;10.338;2023-03-09T01:16:01;0.22;;;0.22;;
76995;SDS011;65929;49.062;10.338;2023-03-09T01:17:02;1.48;;;0.22;;
76995;SDS011;65929;49.062;10.338;2023-03-09T01:18:03;1.98;;;0.35;;
76995;SDS011;65929;49.062;10.338;2023-03-09T01:19:04;0.60;;;0.13;;
76995;SDS011;65929;49.062;10.338;2023-03-09T01:20:05;1.13;;;0.10;;
76995;SDS011;65929;49.062;10.338;2023-03-09T01:21:08;0.43;;;0.20;;
76995;SDS011;65929;49.062;10.338;2023-03-09T01:22:09;0.47;;;0.30;;
76995;SDS011;65929;49.062;10.338;2023-03-09T01:23:10;0.65;;;0.05;;
76995;SDS011;65929;49.062;10.338;2023-03-09T01:24:11;0.00;;;0.00;;
76995;SDS011;65929;49.062;10.338;2023-03-09T01:25:14;0.15;;;0.10;;
76995;SDS011;65929;49.062;10.338;2023-03-09T01:26:17;0.20;;;0.05;;
76995;SDS011;65929;49.062;10.338;2023-03-09T01:27:18;0.20;;;0.20;;
76995;SDS011;65929;49.062;10.338;2023-03-09T01:28:21;0.73;;;0.20;;
76995;SDS011;65929;49.062;10.338;2023-03-09T01:30:09;1.00;;;0.20;;
76995;SDS011;65929;49.062;10.338;2023-03-09T01:31:05;0.50;;;0.20;;
76995;SDS011;65929;49.062;10.338;2023-03-09T01:32:07;1.65;;;0.10;;
76995;SDS011;65929;49.062;10.338;2023-03-09T01:33:10;0.98;;;0.30;;
76995;SDS011;65929;49.062;10.338;2023-03-09T01:34:14;0.10;;;0.10;;
76995;SDS011;65929;49.062;10.338;2023-03-09T01:35:15;0.17;;;0.10;;
76995;SDS011;65929;49.062;10.338;2023-03-09T01:36:17;0.68;;;0.17;;
76995;SDS011;65929;49.062;10.338;2023-03-09T01:37:19;0.68;;;0.25;;
76995;SDS011;65929;49.062;10.338;2023-03-09T01:38:23;0.15;;;0.10;;
76995;SDS011;65929;49.062;10.338;2023-03-09T01:39:26;1.27;;;0.20;;
76995;SDS011;65929;49.062;10.338;2023-03-09T01:40:32;0.28;;;0.13;;
76995;SDS011;65929;49.062;10.338;2023-03-09T01:41:38;0.22;;;0.10;;
76995;SDS011;65929;49.062;10.338;2023-03-09T01:42:41;0.20;;;0.10;;
76995;SDS011;65929;49.062;10.338;2023-03-09T01:43:42;0.25;;;0.15;;
76995;SDS011;65929;49.062;10.338;2023-03-09T01:44:44;0.32;;;0.20;;
76995;SDS011;65929;49.062;10.338;2023-03-09T01:47:26;0.95;;;0.20;;
76995;SDS011;65929;49.062;10.338;2023-03-09T01:48:26;0.47;;;0.20;;
76995;SDS011;65929;49.062;10.338;2023-03-09T01:49:33;1.55;;;0.28;;
76995;SDS011;65929;49.062;10.338;2023-03-09T01:50:38;0.10;;;0.10;;
76995;SDS011;65929;49.062;10.338;2023-03-09T01:51:41;0.17;;;0.10;;
76995;SDS011;65929;49.062;10.338;2023-03-09T01:52:48;0.32;;;0.10;;
76995;SDS011;65929;49.062;10.338;2023-03-09T01:53:51;0.15;;;0.13;;
76995;SDS011;65929;49.062;10.338;2023-03-09T01:54:53;0.60;;;0.10;;
76995;SDS011;65929;49.062;10.338;2023-03-09T01:56:04;1.05;;;0.30;;
76995;SDS011;65929;49.062;10.338;2023-03-09T01:57:13;0.40;;;0.40;;
76995;SDS011;65929;49.062;10.338;2023-03-09T01:58:22;1.45;;;0.20;;
76995;SDS011;65929;49.062;10.338;2023-03-09T01:59:28;0.45;;;0.45;;
76995;SDS011;65929;49.062;10.338;2023-03-09T02:00:30;0.10;;;0.10;;
76995;SDS011;65929;49.062;10.338;2023-03-09T02:01:33;0.60;;;0.15;;
76995;SDS011;65929;49.062;10.338;2023-03-09T02:02:37;0.57;;;0.13;;
76995;SDS011;65929;49.062;10.338;2023-03-09T02:03:40;0.13;;;0.13;;
76995;SDS011;65929;49.062;10.338;2023-03-09T02:04:47;1.02;;;0.30;;
76995;SDS011;65929;49.062;10.338;2023-03-09T02:06:55;1.55;;;0.30;;
76995;SDS011;65929;49.062;10.338;2023-03-09T02:07:57;0.65;;;0.10;;
76995;SDS011;65929;49.062;10.338;2023-03-09T02:09:00;1.08;;;0.20;;
76995;SDS011;65929;49.062;10.338;2023-03-09T02:10:07;0.28;;;0.20;;
76995;SDS011;65929;49.062;10.338;2023-03-09T02:11:12;0.13;;;0.10;;
76995;SDS011;65929;49.062;10.338;2023-03-09T02:12:21;0.65;;;0.20;;
76995;SDS011;65929;49.062;10.338;2023-03-09T02:13:24;0.20;;;0.20;;
76995;SDS011;65929;49.062;10.338;2023-03-09T02:14:29;0.55;;;0.30;;
76995;SDS011;65929;49.062;10.338;2023-03-09T02:15:30;0.30;;;0.20;;
76995;SDS011;65929;49.062;10.338;2023-03-09T02:16:31;0.30;;;0.10;;
76995;SDS011;65929;49.062;10.338;2023-03-09T02:17:32;0.22;;;0.22;;
76995;SDS011;65929;49.062;10.338;2023-03-09T02:18:33;0.85;;;0.20;;
76995;SDS011;65929;49.062;10.338;2023-03-09T02:19:38;0.50;;;0.20;;
76995;SDS011;65929;49.062;10.338;2023-03-09T02:20:54;1.48;;;0.35;;
76995;SDS011;65929;49.062;10.338;2023-03-09T02:22:04;1.45;;;0.30;;
76995;SDS011;65929;49.062;10.338;2023-03-09T02:23:05;0.43;;;0.17;;
76995;SDS011;65929;49.062;10.338;2023-03-09T02:24:13;0.30;;;0.20;;
76995;SDS011;65929;49.062;10.338;2023-03-09T02:25:26;0.35;;;0.20;;
76995;SDS011;65929;49.062;10.338;2023-03-09T02:26:32;0.20;;;0.20;;
76995;SDS011;65929;49.062;10.338;2023-03-09T02:27:39;0.75;;;0.30;;
76995;SDS011;65929;49.062;10.338;2023-03-09T02:28:40;0.63;;;0.25;;
76995;SDS011;65929;49.062;10.338;2023-03-09T02:29:41;0.68;;;0.25;;
76995;SDS011;65929;49.062;10.338;2023-03-09T02:30:43;0.43;;;0.30;;
76995;SDS011;65929;49.062;10.338;2023-03-09T02:31:46;0.15;;;0.13;;
76995;SDS011;65929;49.062;10.338;2023-03-09T02:32:47;0.85;;;0.45;;
76995;SDS011;65929;49.062;10.338;2023-03-09T02:33:48;0.32;;;0.20;;
76995;SDS011;65929;49.062;10.338;2023-03-09T02:34:49;0.80;;;0.20;;
76995;SDS011;65929;49.062;10.338;2023-03-09T02:35:50;0.30;;;0.20;;
76995;SDS011;65929;49.062;10.338;2023-03-09T02:36:51;1.35;;;0.35;;
76995;SDS011;65929;49.062;10.338;2023-03-09T02:37:52;0.20;;;0.15;;
76995;SDS011;65929;49.062;10.338;2023-03-09T02:38:54;1.17;;;0.30;;
76995;SDS011;65929;49.062;10.338;2023-03-09T02:39:56;0.30;;;0.10;;
76995;SDS011;65929;49.062;10.338;2023-03-09T02:40:59;0.43;;;0.20;;
76995;SDS011;65929;49.062;10.338;2023-03-09T02:42:02;0.10;;;0.10;;
76995;SDS011;65929;49.062;10.338;2023-03-09T02:43:06;2.22;;;0.30;;
76995;SDS011;65929;49.062;10.338;2023-03-09T02:44:08;0.80;;;0.20;;
76995;SDS011;65929;49.062;10.338;2023-03-09T02:45:10;1.27;;;0.10;;
76995;SDS011;65929;49.062;10.338;2023-03-09T02:46:12;1.77;;;0.28;;
76995;SDS011;65929;49.062;10.338;2023-03-09T02:47:16;0.30;;;0.20;;
76995;SDS011;65929;49.062;10.338;2023-03-09T02:49:19;0.70;;;0.15;;
76995;SDS011;65929;49.062;10.338;2023-03-09T02:50:20;0.10;;;0.10;;
76995;SDS011;65929;49.062;10.338;2023-03-09T02:51:21;0.17;;;0.17;;
76995;SDS011;65929;49.062;10.338;2023-03-09T02:52:22;0.40;;;0.20;;
76995;SDS011;65929;49.062;10.338;2023-03-09T02:53:23;0.20;;;0.10;;
76995;SDS011;65929;49.062;10.338;2023-03-09T02:54:24;0.32;;;0.10;;
76995;SDS011;65929;49.062;10.338;2023-03-09T02:55:25;1.13;;;0.20;;
76995;SDS011;65929;49.062;10.338;2023-03-09T02:56:26;0.93;;;0.10;;
76995;SDS011;65929;49.062;10.338;2023-03-09T02:57:27;0.10;;;0.10;;
76995;SDS011;65929;49.062;10.338;2023-03-09T02:58:30;0.10;;;0.00;;
76995;SDS011;65929;49.062;10.338;2023-03-09T02:59:31;0.35;;;0.20;;
76995;SDS011;65929;49.062;10.338;2023-03-09T03:00:32;0.40;;;0.10;;
76995;SDS011;65929;49.062;10.338;2023-03-09T03:01:33;0.03;;;0.00;;
76995;SDS011;65929;49.062;10.338;2023-03-09T03:02:34;1.63;;;0.10;;
76995;SDS011;65929;49.062;10.338;2023-03-09T03:03:35;0.77;;;0.10;;
76995;SDS011;65929;49.062;10.338;2023-03-09T03:04:36;7.38;;;0.20;;
76995;SDS011;65929;49.062;10.338;2023-03-09T03:05:37;0.10;;;0.10;;
76995;SDS011;65929;49.062;10.338;2023-03-09T03:06:38;1.50;;;0.20;;
76995;SDS011;65929;49.062;10.338;2023-03-09T03:07:40;0.00;;;0.00;;
76995;SDS011;65929;49.062;10.338;2023-03-09T03:08:41;0.75;;;0.13;;
76995;SDS011;65929;49.062;10.338;2023-03-09T03:09:44;2.75;;;0.38;;
76995;SDS011;65929;49.062;10.338;2023-03-09T03:10:45;0.28;;;0.22;;
76995;SDS011;65929;49.062;10.338;2023-03-09T03:11:46;0.50;;;0.10;;
76995;SDS011;65929;49.062;10.338;2023-03-09T03:12:47;0.85;;;0.13;;
76995;SDS011;65929;49.062;10.338;2023-03-09T03:13:50;0.40;;;0.10;;
76995;SDS011;65929;49.062;10.338;2023-03-09T03:14:51;0.40;;;0.20;;
76995;SDS011;65929;49.062;10.338;2023-03-09T03:15:56;0.57;;;0.15;;
76995;SDS011;65929;49.062;10.338;2023-03-09T03:16:58;0.55;;;0.10;;
76995;SDS011;65929;49.062;10.338;2023-03-09T03:17:59;1.25;;;0.10;;
76995;SDS011;65929;49.062;10.338;2023-03-09T03:19:00;0.30;;;0.10;;
76995;SDS011;65929;49.062;10.338;2023-03-09T03:20:01;0.00;;;0.00;;
76995;SDS011;65929;49.062;10.338;2023-03-09T03:21:11;0.10;;;0.10;;
76995;SDS011;65929;49.062;10.338;2023-03-09T03:22:12;1.23;;;0.10;;
76995;SDS011;65929;49.062;10.338;2023-03-09T03:23:13;0.10;;;0.00;;
76995;SDS011;65929;49.062;10.338;2023-03-09T03:24:14;0.00;;;0.00;;
76995;SDS011;65929;49.062;10.338;2023-03-09T03:25:15;0.55;;;0.10;;
76995;SDS011;65929;49.062;10.338;2023-03-09T03:26:16;0.20;;;0.10;;
76995;SDS011;65929;49.062;10.338;2023-03-09T03:27:18;0.20;;;0.00;;
76995;SDS011;65929;49.062;10.338;2023-03-09T03:28:22;0.25;;;0.10;;
76995;SDS011;65929;49.062;10.338;2023-03-09T03:29:24;0.25;;;0.10;;
76995;SDS011;65929;49.062;10.338;2023-03-09T03:30:25;0.20;;;0.20;;
76995;SDS011;65929;49.062;10.338;2023-03-09T03:31:26;0.55;;;0.10;;
76995;SDS011;65929;49.062;10.338;2023-03-09T03:32:27;0.90;;;0.10;;
76995;SDS011;65929;49.062;10.338;2023-03-09T03:33:28;0.80;;;0.00;;
76995;SDS011;65929;49.062;10.338;2023-03-09T03:34:29;0.00;;;0.00;;
76995;SDS011;65929;49.062;10.338;2023-03-09T03:35:30;0.10;;;0.05;;
76995;SDS011;65929;49.062;10.338;2023-03-09T03:36:31;0.35;;;0.00;;
76995;SDS011;65929;49.062;10.338;2023-03-09T03:37:32;0.10;;;0.00;;
76995;SDS011;65929;49.062;10.338;2023-03-09T03:38:33;0.45;;;0.10;;
76995;SDS011;65929;49.062;10.338;2023-03-09T03:39:34;0.40;;;0.10;;
76995;SDS011;65929;49.062;10.338;2023-03-09T03:40:35;0.00;;;0.00;;
76995;SDS011;65929;49.062;10.338;2023-03-09T03:41:36;0.08;;;0.05;;
76995;SDS011;65929;49.062;10.338;2023-03-09T03:42:37;0.05;;;0.00;;
76995;SDS011;65929;49.062;10.338;2023-03-09T03:43:38;0.55;;;0.20;;
76995;SDS011;65929;49.062;10.338;2023-03-09T03:44:40;0.00;;;0.00;;
76995;SDS011;65929;49.062;10.338;2023-03-09T03:45:43;1.10;;;0.10;;
76995;SDS011;65929;49.062;10.338;2023-03-09T03:46:44;2.17;;;0.25;;
76995;SDS011;65929;49.062;10.338;2023-03-09T03:47:45;1.38;;;0.10;;
76995;SDS011;65929;49.062;10.338;2023-03-09T03:48:46;0.00;;;0.00;;
76995;SDS011;65929;49.062;10.338;2023-03-09T03:49:47;0.20;;;0.08;;
76995;SDS011;65929;49.062;10.338;2023-03-09T03:50:48;0.10;;;0.10;;
76995;SDS011;65929;49.062;10.338;2023-03-09T03:51:49;0.80;;;0.20;;
76995;SDS011;65929;49.062;10.338;2023-03-09T03:52:50;0.20;;;0.20;;
76995;SDS011;65929;49.062;10.338;2023-03-09T03:53:50;2.28;;;0.38;;
76995;SDS011;65929;49.062;10.338;2023-03-09T03:54:51;0.10;;;0.10;;
76995;SDS011;65929;49.062;10.338;2023-03-09T03:55:52;1.05;;;0.28;;
76995;SDS011;65929;49.062;10.338;2023-03-09T03:56:53;1.30;;;0.22;;
76995;SDS011;65929;49.062;10.338;2023-03-09T03:57:54;1.02;;;0.30;;
76995;SDS011;65929;49.062;10.338;2023-03-09T03:58:55;1.00;;;0.38;;
76995;SDS011;65929;49.062;10.338;2023-03-09T03:59:58;0.88;;;0.10;;
76995;SDS011;65929;49.062;10.338;2023-03-09T04:00:58;1.05;;;0.60;;
76995;SDS011;65929;49.062;10.338;2023-03-09T04:01:59;1.55;;;0.30;;
76995;SDS011;65929;49.062;10.338;2023-03-09T04:03:00;0.98;;;0.30;;
76995;SDS011;65929;49.062;10.338;2023-03-09T04:04:01;1.00;;;0.40;;
76995;SDS011;65929;49.062;10.338;2023-03-09T04:05:03;0.50;;;0.30;;
76995;SDS011;65929;49.062;10.338;2023-03-09T04:06:05;1.58;;;0.22;;
76995;SDS011;65929;49.062;10.338;2023-03-09T04:07:06;0.22;;;0.10;;
76995;SDS011;65929;49.062;10.338;2023-03-09T04:08:07;0.60;;;0.20;;
76995;SDS011;65929;49.062;10.338;2023-03-09T04:09:08;0.10;;;0.10;;
76995;SDS011;65929;49.062;10.338;2023-03-09T04:10:09;0.40;;;0.17;;
76995;SDS011;65929;49.062;10.338;2023-03-09T04:11:11;0.38;;;0.10;;
76995;SDS011;65929;49.062;10.338;2023-03-09T04:12:12;0.28;;;0.10;;
76995;SDS011;65929;49.062;10.338;2023-03-09T04:13:13;1.95;;;0.32;;
76995;SDS011;65929;49.062;10.338;2023-03-09T04:14:14;0.52;;;0.20;;
76995;SDS011;65929;49.062;10.338;2023-03-09T04:15:19;0.40;;;0.20;;
76995;SDS011;65929;49.062;10.338;2023-03-09T04:16:20;0.30;;;0.03;;
76995;SDS011;65929;49.062;10.338;2023-03-09T04:17:21;0.00;;;0.00;;
76995;SDS011;65929;49.062;10.338;2023-03-09T04:18:22;0.22;;;0.10;;
76995;SDS011;65929;49.062;10.338;2023-03-09T04:19:23;0.00;;;0.00;;
76995;SDS011;65929;49.062;10.338;2023-03-09T04:20:24;0.45;;;0.08;;
76995;SDS011;65929;49.062;10.338;2023-03-09T04:21:25;0.80;;;0.10;;
76995;SDS011;65929;49.062;10.338;2023-03-09T04:22:26;0.30;;;0.03;;
76995;SDS011;65929;49.062;10.338;2023-03-09T04:23:27;0.20;;;0.03;;
76995;SDS011;65929;49.062;10.338;2023-03-09T04:24:28;0.05;;;0.05;;
76995;SDS011;65929;49.062;10.338;2023-03-09T04:25:29;2.33;;;0.10;;
76995;SDS011;65929;49.062;10.338;2023-03-09T04:26:30;0.25;;;0.20;;
76995;SDS011;65929;49.062;10.338;2023-03-09T04:27:32;0.00;;;0.00;;
76995;SDS011;65929;49.062;10.338;2023-03-09T04:28:33;2.13;;;0.20;;
76995;SDS011;65929;49.062;10.338;2023-03-09T04:29:34;0.00;;;0.00;;
76995;SDS011;65929;49.062;10.338;2023-03-09T04:30:36;0.60;;;0.05;;
76995;SDS011;65929;49.062;10.338;2023-03-09T04:31:37;0.38;;;0.00;;
76995;SDS011;65929;49.062;10.338;2023-03-09T04:32:38;0.75;;;0.10;;
76995;SDS011;65929;49.062;10.338;2023-03-09T04:33:39;0.10;;;0.00;;
76995;SDS011;65929;49.062;10.338;2023-03-09T04:34:42;0.00;;;0.00;;
76995;SDS011;65929;49.062;10.338;2023-03-09T04:35:43;0.35;;;0.03;;
76995;SDS011;65929;49.062;10.338;2023-03-09T04:36:51;0.70;;;0.10;;
76995;SDS011;65929;49.062;10.338;2023-03-09T04:37:52;0.17;;;0.17;;
76995;SDS011;65929;49.062;10.338;2023-03-09T04:38:53;1.40;;;0.10;;
76995;SDS011;65929;49.062;10.338;2023-03-09T04:39:54;0.75;;;0.10;;
76995;SDS011;65929;49.062;10.338;2023-03-09T04:40:55;0.00;;;0.00;;
76995;SDS011;65929;49.062;10.338;2023-03-09T04:41:56;0.00;;;0.00;;
76995;SDS011;65929;49.062;10.338;2023-03-09T04:42:57;0.00;;;0.00;;
76995;SDS011;65929;49.062;10.338;2023-03-09T04:43:58;0.03;;;0.03;;
76995;SDS011;65929;49.062;10.338;2023-03-09T04:44:59;0.10;;;0.10;;
76995;SDS011;65929;49.062;10.338;2023-03-09T04:46:01;0.25;;;0.03;;
76995;SDS011;65929;49.062;10.338;2023-03-09T04:47:03;0.10;;;0.00;;
76995;SDS011;65929;49.062;10.338;2023-03-09T04:48:04;0.10;;;0.00;;
76995;SDS011;65929;49.062;10.338;2023-03-09T04:49:05;0.20;;;0.00;;
76995;SDS011;65929;49.062;10.338;2023-03-09T04:50:07;0.13;;;0.13;;
76995;SDS011;65929;49.062;10.338;2023-03-09T04:51:09;0.20;;;0.10;;
76995;SDS011;65929;49.062;10.338;2023-03-09T04:52:10;0.22;;;0.15;;
76995;SDS011;65929;49.062;10.338;2023-03-09T04:53:11;1.00;;;0.25;;
76995;SDS011;65929;49.062;10.338;2023-03-09T04:54:12;0.00;;;0.00;;
76995;SDS011;65929;49.062;10.338;2023-03-09T04:55:13;0.10;;;0.10;;
76995;SDS011;65929;49.062;10.338;2023-03-09T04:56:14;0.20;;;0.20;;
76995;SDS011;65929;49.062;10.338;2023-03-09T04:57:15;0.70;;;0.22;;
76995;SDS011;65929;49.062;10.338;2023-03-09T04:58:17;0.22;;;0.15;;
76995;SDS011;65929;49.062;10.338;2023-03-09T04:59:18;0.22;;;0.20;;
76995;SDS011;65929;49.062;10.338;2023-03-09T05:00:20;0.20;;;0.20;;
76995;SDS011;65929;49.062;10.338;2023-03-09T05:01:22;0.65;;;0.20;;
76995;SDS011;65929;49.062;10.338;2023-03-09T05:02:23;0.80;;;0.30;;
76995;SDS011;65929;49.062;10.338;2023-03-09T05:03:26;0.45;;;0.20;;
76995;SDS011;65929;49.062;10.338;2023-03-09T05:04:27;1.00;;;0.30;;
76995;SDS011;65929;49.062;10.338;2023-03-09T05:05:28;1.23;;;0.25;;
76995;SDS011;65929;49.062;10.338;2023-03-09T05:06:29;1.10;;;0.47;;
76995;SDS011;65929;49.062;10.338;2023-03-09T05:07:30;0.80;;;0.20;;
76995;SDS011;65929;49.062;10.338;2023-03-09T05:08:31;1.75;;;0.32;;
76995;SDS011;65929;49.062;10.338;2023-03-09T05:09:31;0.20;;;0.20;;
76995;SDS011;65929;49.062;10.338;2023-03-09T05:10:32;1.52;;;0.22;;
76995;SDS011;65929;49.062;10.338;2023-03-09T05:11:33;0.15;;;0.15;;
76995;SDS011;65929;49.062;10.338;2023-03-09T05:12:34;0.57;;;0.40;;
76995;SDS011;65929;49.062;10.338;2023-03-09T05:13:35;1.05;;;0.32;;
76995;SDS011;65929;49.062;10.338;2023-03-09T05:14:36;0.20;;;0.20;;
76995;SDS011;65929;49.062;10.338;2023-03-09T05:15:37;0.77;;;0.20;;
76995;SDS011;65929;49.062;10.338;2023-03-09T05:16:40;0.52;;;0.22;;
76995;SDS011;65929;49.062;10.338;2023-03-09T05:17:41;0.10;;;0.10;;
76995;SDS011;65929;49.062;10.338;2023-03-09T05:18:42;0.65;;;0.20;;
76995;SDS011;65929;49.062;10.338;2023-03-09T05:19:43;0.43;;;0.20;;
76995;SDS011;65929;49.062;10.338;2023-03-09T05:20:44;0.75;;;0.13;;
76995;SDS011;65929;49.062;10.338;2023-03-09T05:21:45;0.30;;;0.20;;
76995;SDS011;65929;49.062;10.338;2023-03-09T05:22:46;0.55;;;0.45;;
76995;SDS011;65929;49.062;10.338;2023-03-09T05:23:47;0.40;;;0.30;;
76995;SDS011;65929;49.062;10.338;2023-03-09T05:24:48;0.32;;;0.17;;
76995;SDS011;65929;49.062;10.338;2023-03-09T05:25:54;1.17;;;0.30;;
76995;SDS011;65929;49.062;10.338;2023-03-09T05:26:56;0.20;;;0.20;;
76995;SDS011;65929;49.062;10.338;2023-03-09T05:27:57;0.30;;;0.20;;
76995;SDS011;65929;49.062;10.338;2023-03-09T05:28:58;0.38;;;0.30;;
76995;SDS011;65929;49.062;10.338;2023-03-09T05:29:59;1.17;;;0.40;;
76995;SDS011;65929;49.062;10.338;2023-03-09T05:31:00;0.73;;;0.32;;
76995;SDS011;65929;49.062;10.338;2023-03-09T05:32:03;0.93;;;0.45;;
76995;SDS011;65929;49.062;10.338;2023-03-09T05:33:05;1.83;;;0.60;;
76995;SDS011;65929;49.062;10.338;2023-03-09T05:34:06;1.45;;;0.50;;
76995;SDS011;65929;49.062;10.338;2023-03-09T05:35:07;0.38;;;0.35;;
76995;SDS011;65929;49.062;10.338;2023-03-09T05:36:14;0.50;;;0.40;;
76995;SDS011;65929;49.062;10.338;2023-03-09T05:37:17;0.65;;;0.45;;
76995;SDS011;65929;49.062;10.338;2023-03-09T05:38:18;0.70;;;0.30;;
76995;SDS011;65929;49.062;10.338;2023-03-09T05:39:19;1.05;;;0.85;;
76995;SDS011;65929;49.062;10.338;2023-03-09T05:40:20;1.25;;;0.40;;
76995;SDS011;65929;49.062;10.338;2023-03-09T05:41:23;1.50;;;0.50;;
76995;SDS011;65929;49.062;10.338;2023-03-09T05:42:24;0.55;;;0.30;;
76995;SDS011;65929;49.062;10.338;2023-03-09T05:43:25;1.52;;;0.73;;
76995;SDS011;65929;49.062;10.338;2023-03-09T05:44:26;1.38;;;0.40;;
76995;SDS011;65929;49.062;10.338;2023-03-09T05:45:26;1.77;;;0.65;;
76995;SDS011;65929;49.062;10.338;2023-03-09T05:46:27;0.60;;;0.40;;
76995;SDS011;65929;49.062;10.338;2023-03-09T05:47:31;0.70;;;0.57;;
76995;SDS011;65929;49.062;10.338;2023-03-09T05:48:32;2.10;;;0.45;;
76995;SDS011;65929;49.062;10.338;2023-03-09T05:49:33;0.60;;;0.60;;
76995;SDS011;65929;49.062;10.338;2023-03-09T05:50:34;0.98;;;0.75;;
76995;SDS011;65929;49.062;10.338;2023-03-09T05:51:37;1.58;;;0.52;;
76995;SDS011;65929;49.062;10.338;2023-03-09T05:52:38;0.55;;;0.50;;
76995;SDS011;65929;49.062;10.338;2023-03-09T05:53:39;0.85;;;0.50;;
76995;SDS011;65929;49.062;10.338;2023-03-09T05:54:40;1.17;;;0.40;;
76995;SDS011;65929;49.062;10.338;2023-03-09T05:55:41;1.98;;;0.68;;
76995;SDS011;65929;49.062;10.338;2023-03-09T05:56:42;1.80;;;0.60;;
76995;SDS011;65929;49.062;10.338;2023-03-09T05:57:45;1.77;;;0.70;;
76995;SDS011;65929;49.062;10.338;2023-03-09T05:58:47;1.75;;;0.60;;
76995;SDS011;65929;49.062;10.338;2023-03-09T05:59:51;1.00;;;0.80;;
76995;SDS011;65929;49.062;10.338;2023-03-09T06:00:52;2.28;;;0.50;;
76995;SDS011;65929;49.062;10.338;2023-03-09T06:01:53;0.43;;;0.30;;
76995;SDS011;65929;49.062;10.338;2023-03-09T06:02:55;1.05;;;0.35;;
76995;SDS011;65929;49.062;10.338;2023-03-09T06:03:56;0.98;;;0.63;;
76995;SDS011;65929;49.062;10.338;2023-03-09T06:04:57;2.22;;;0.50;;
76995;SDS011;65929;49.062;10.338;2023-03-09T06:05:59;1.15;;;0.52;;
76995;SDS011;65929;49.062;10.338;2023-03-09T06:07:01;2.38;;;0.80;;
76995;SDS011;65929;49.062;10.338;2023-03-09T06:08:02;1.55;;;0.82;;
76995;SDS011;65929;49.062;10.338;2023-03-09T06:09:03;5.15;;;0.75;;
76995;SDS011;65929;49.062;10.338;2023-03-09T06:10:05;1.42;;;0.45;;
76995;SDS011;65929;49.062;10.338;2023-03-09T06:11:06;3.22;;;0.50;;
76995;SDS011;65929;49.062;10.338;2023-03-09T06:12:08;1.33;;;0.30;;
76995;SDS011;65929;49.062;10.338;2023-03-09T06:13:08;2.75;;;0.60;;
76995;SDS011;65929;49.062;10.338;2023-03-09T06:14:09;3.47;;;0.60;;
76995;SDS011;65929;49.062;10.338;2023-03-09T06:15:10;3.40;;;0.60;;
76995;SDS011;65929;49.062;10.338;2023-03-09T06:16:12;2.67;;;0.60;;